Bouzas — EAPC — position and weather

sailwx.info

Track history (hours):
 
Tides and Currents Weather Stations Pressure Air Temp Water Temp Dewpoint Dewpoint Depression Visibility Wind Speed Wind Dir Waves Ship Positions

Bouzas

Last reported at 2014-Oct-02 08:04 UTC. Time now 2014-Oct-02 10:35 UTC.
Position N 37°55' W 000°12'.

Length 142 m; draft 5.6 m.

Type: Cargo ship. MMSI: 224029000.

Date/timePositionNaut miles runAvg speedWind from/ knotsBaromVisibWave heightAir tempDewpointWater temp
2014-Oct-02 08:04N 37°55' W 000°12'1017.6
2014-Oct-02 07:31N 37°47' W 000°19'1717.6
2014-Oct-02 06:33N 37°33' W 000°31'1717.0
2014-Oct-02 05:34N 37°22' W 000°47'23817.0
2014-Oct-01 15:33N 35°58' W 005°24'  
2014-Sep-27 03:15N 37°13' W 001°04'1319.0
2014-Sep-27 02:33N 37°22' W 000°52'2019.8
2014-Sep-27 01:33N 37°35' W 000°33'2019.7
2014-Sep-27 00:33N 37°51' W 000°19'13619.4
2014-Sep-26 17:33N 39°48' E 001°10'1918.9
2014-Sep-26 16:33N 40°05' E 001°22'1919.1
2014-Sep-26 15:33N 40°21' E 001°34'1919.2
2014-Sep-26 14:33N 40°38' E 001°46'1919.0
2014-Sep-26 13:33N 40°55' E 001°58'8 0.7
2014-Sep-26 01:33N 41°02' E 002°04'1111.0
2014-Sep-26 00:33N 40°52' E 001°57'1211.6
2014-Sep-25 23:33N 40°42' E 001°50'1211.6
2014-Sep-25 22:33N 40°32' E 001°43'1211.9
2014-Sep-25 21:34N 40°21' E 001°35'1212.1
2014-Sep-25 20:33N 40°11' E 001°28'1111.5
2014-Sep-25 19:33N 40°01' E 001°21'1414.1
2014-Sep-25 18:34N 39°48' E 001°13'14013.5
2014-Sep-25 08:09N 37°47' W 000°19'813.7
2014-Sep-25 07:33N 37°41' W 000°25'1413.7
2014-Sep-25 06:33N 37°30' W 000°36'1413.9
2014-Sep-25 05:33N 37°21' W 000°49'22714.8
2014-Sep-24 14:11N 35°59' W 005°13'  
Track history (hours):
 
Tides and Currents Weather Stations Pressure Air Temp Water Temp Dewpoint Dewpoint Depression Visibility Wind Speed Wind Dir Waves Ship Positions

Bouzas

Last reported at 2014-Oct-02 08:04 UTC. Time now 2014-Oct-02 10:35 UTC.
Position N 37°55' W 000°12'.

Length 142 m; draft 5.6 m.

Type: Cargo ship. MMSI: 224029000.

Date/timePositionNaut miles runAvg speedWind from/ knotsBaromVisibWave heightAir tempDewpointWater temp
2014-Oct-02 08:04N 37°55' W 000°12'1017.6
2014-Oct-02 07:31N 37°47' W 000°19'1717.6
2014-Oct-02 06:33N 37°33' W 000°31'1717.0
2014-Oct-02 05:34N 37°22' W 000°47'23817.0
2014-Oct-01 15:33N 35°58' W 005°24'  
2014-Sep-27 03:15N 37°13' W 001°04'1319.0
2014-Sep-27 02:33N 37°22' W 000°52'2019.8
2014-Sep-27 01:33N 37°35' W 000°33'2019.7
2014-Sep-27 00:33N 37°51' W 000°19'13619.4
2014-Sep-26 17:33N 39°48' E 001°10'1918.9
2014-Sep-26 16:33N 40°05' E 001°22'1919.1
2014-Sep-26 15:33N 40°21' E 001°34'1919.2
2014-Sep-26 14:33N 40°38' E 001°46'1919.0
2014-Sep-26 13:33N 40°55' E 001°58'8 0.7
2014-Sep-26 01:33N 41°02' E 002°04'1111.0
2014-Sep-26 00:33N 40°52' E 001°57'1211.6
2014-Sep-25 23:33N 40°42' E 001°50'1211.6
2014-Sep-25 22:33N 40°32' E 001°43'1211.9
2014-Sep-25 21:34N 40°21' E 001°35'1212.1
2014-Sep-25 20:33N 40°11' E 001°28'1111.5
2014-Sep-25 19:33N 40°01' E 001°21'1414.1
2014-Sep-25 18:34N 39°48' E 001°13'14013.5
2014-Sep-25 08:09N 37°47' W 000°19'813.7
2014-Sep-25 07:33N 37°41' W 000°25'1413.7
2014-Sep-25 06:33N 37°30' W 000°36'1413.9
2014-Sep-25 05:33N 37°21' W 000°49'22714.8
2014-Sep-24 14:11N 35°59' W 005°13'  

Dump ship's entire track history